Time;durP1;ratioP1;P1;durP2;ratioP2;P2;SDS_P1;SDS_P2;PMS_P1;PMS_P2;Temp;Humidity;BMP_temperature;BMP_pressure;BME280_temperature;BME280_humidity;BME280_pressure;Samples;Min_cycle;Max_cycle;Signal;HPM_P1;HPM_P2
2022/12/19 00:02:01;;;;;;;44.80;17.45;;;16.50;73.10;;;;;;1807199;78;21078;-84
2022/12/19 00:04:36;;;;;;;34.70;14.73;;;16.50;73.00;;;;;;1814349;78;21263;-80
2022/12/19 00:07:07;;;;;;;29.70;16.15;;;16.50;72.90;;;;;;1810328;78;21215;-81
2022/12/19 00:09:38;;;;;;;34.35;16.73;;;16.50;72.70;;;;;;1808195;78;21209;-80
2022/12/19 00:12:09;;;;;;;34.18;14.83;;;16.60;72.30;;;;;;1823686;78;21617;-80
2022/12/19 00:14:46;;;;;;;33.10;15.78;;;16.60;71.80;;;;;;1812330;78;21361;-81
2022/12/19 00:17:20;;;;;;;29.90;15.75;;;16.60;71.60;;;;;;1821683;78;21188;-81
2022/12/19 00:19:52;;;;;;;40.80;17.05;;;16.70;71.50;;;;;;1815636;78;21155;-80
2022/12/19 00:22:23;;;;;;;36.50;19.65;;;16.70;71.40;;;;;;1825166;78;21163;-80
2022/12/19 00:24:53;;;;;;;34.23;17.42;;;16.70;71.30;;;;;;1818350;78;21596;-81
2022/12/19 00:27:24;;;;;;;33.88;17.27;;;16.70;71.00;;;;;;1818802;77;21153;-80
2022/12/19 00:29:57;;;;;;;36.93;18.80;;;16.80;71.20;;;;;;1809910;78;21160;-80
2022/12/19 00:32:28;;;;;;;39.40;18.45;;;16.80;70.90;;;;;;1820276;78;21522;-84
2022/12/19 00:34:58;;;;;;;32.90;17.77;;;16.90;70.60;;;;;;1819631;77;21548;-81
2022/12/19 00:37:30;;;;;;;38.42;18.35;;;16.90;70.20;;;;;;1813303;78;21239;-82
2022/12/19 00:40:00;;;;;;;38.85;18.48;;;16.90;69.80;;;;;;1816782;78;21227;-82
2022/12/19 00:42:31;;;;;;;32.58;17.55;;;17.00;69.70;;;;;;1816242;77;21109;-81
2022/12/19 00:45:02;;;;;;;31.35;15.95;;;17.10;69.70;;;;;;1816708;78;21098;-80
2022/12/19 00:47:33;;;;;;;32.93;17.02;;;17.10;69.20;;;;;;1828302;77;21682;-83
2022/12/19 00:50:04;;;;;;;32.73;16.27;;;17.10;69.40;;;;;;1832908;77;21198;-80
2022/12/19 00:52:35;;;;;;;26.82;15.05;;;17.20;69.30;;;;;;1839186;77;21869;-81
2022/12/19 00:55:13;;;;;;;29.85;14.35;;;17.30;68.40;;;;;;1785903;79;21141;-80
2022/12/19 00:57:45;;;;;;;35.05;15.35;;;17.30;68.00;;;;;;1761975;79;21160;-82
2022/12/19 01:00:17;;;;;;;37.58;18.80;;;17.40;67.40;;;;;;1754552;80;21166;-84
2022/12/19 01:02:48;;;;;;;37.60;18.05;;;17.40;67.20;;;;;;1784245;80;21160;-82
2022/12/19 01:05:20;;;;;;;30.92;16.20;;;17.40;68.30;;;;;;1791771;79;21101;-83
2022/12/19 01:07:52;;;;;;;27.52;14.75;;;17.40;67.00;;;;;;1791050;78;21227;-82
2022/12/19 01:10:23;;;;;;;26.68;15.80;;;17.40;66.20;;;;;;1748362;81;21179;-83
2022/12/19 01:12:54;;;;;;;39.33;18.40;;;17.40;66.10;;;;;;1785173;79;21403;-83
2022/12/19 01:15:24;;;;;;;32.23;15.55;;;17.40;66.50;;;;;;1790834;80;21093;-83
2022/12/19 01:17:55;;;;;;;26.90;13.93;;;17.40;65.80;;;;;;1768518;79;21084;-83
2022/12/19 01:20:26;;;;;;;28.98;14.38;;;17.40;66.00;;;;;;1768797;80;21126;-83
2022/12/19 01:22:59;;;;;;;39.40;18.30;;;17.40;66.20;;;;;;1758446;80;21188;-82
2022/12/19 01:25:29;;;;;;;30.27;18.10;;;17.40;65.70;;;;;;1757651;80;21141;-82
2022/12/19 01:28:02;;;;;;;31.48;18.12;;;17.40;65.70;;;;;;1796259;79;21221;-81
2022/12/19 01:30:33;;;;;;;38.45;17.87;;;17.50;65.60;;;;;;1785600;78;21203;-82
2022/12/19 01:33:04;;;;;;;36.50;20.75;;;17.50;65.60;;;;;;1782686;78;21246;-84
2022/12/19 01:35:34;;;;;;;29.60;15.70;;;17.60;65.40;;;;;;1754903;81;21675;-71
2022/12/19 01:38:06;;;;;;;28.87;15.00;;;17.60;64.40;;;;;;1790728;78;21121;-71
2022/12/19 01:40:39;;;;;;;32.23;16.52;;;17.70;64.30;;;;;;1755872;81;21122;-71
2022/12/19 01:43:14;;;;;;;;;;;17.70;64.30;;;;;;1753038;80;21927;-72
2022/12/19 01:45:47;;;;;;;30.35;13.35;;;17.80;63.20;;;;;;1796511;78;20522;-70
2022/12/19 01:48:21;;;;;;;38.28;16.97;;;17.80;63.10;;;;;;1792895;79;21705;-71
2022/12/19 01:51:03;;;;;;;34.35;15.98;;;17.80;63.10;;;;;;1789164;78;21138;-71
2022/12/19 01:53:39;;;;;;;27.52;14.83;;;17.90;62.20;;;;;;1751388;79;21129;-72
2022/12/19 01:56:14;;;;;;;30.27;14.20;;;17.90;62.60;;;;;;1726953;81;21270;-71
2022/12/19 01:58:47;;;;;;;26.57;13.40;;;17.90;62.30;;;;;;1734293;80;21137;-71
2022/12/19 02:01:19;;;;;;;30.40;15.05;;;18.00;61.80;;;;;;1791337;78;21197;-71
2022/12/19 02:03:51;;;;;;;27.62;12.50;;;18.00;61.10;;;;;;1799546;79;21191;-71
2022/12/19 02:06:22;;;;;;;23.87;12.73;;;18.00;60.80;;;;;;1810550;79;21262;-71
2022/12/19 02:08:55;;;;;;;24.77;12.60;;;18.10;61.30;;;;;;1793749;79;21160;-71
2022/12/19 02:11:27;;;;;;;29.32;13.55;;;18.10;60.80;;;;;;1754928;79;21178;-70
2022/12/19 02:13:58;;;;;;;26.25;13.10;;;18.10;59.50;;;;;;1766951;79;21224;-72
2022/12/19 02:16:42;;;;;;;30.68;14.20;;;18.20;60.40;;;;;;1777088;79;22026;-71
2022/12/19 02:19:24;;;;;;;25.00;13.35;;;18.20;60.40;;;;;;1792673;79;21203;-71
2022/12/19 02:22:00;;;;;;;31.48;14.38;;;18.20;60.60;;;;;;1800097;78;21215;-71
2022/12/19 02:25:06;;;;;;;32.15;15.00;;;18.30;61.10;;;;;;1789890;79;21127;-71
2022/12/19 02:28:01;;;;;;;32.80;14.90;;;18.40;61.50;;;;;;1791236;79;21152;-71
2022/12/19 02:31:05;;;;;;;30.80;14.47;;;18.40;61.30;;;;;;1775991;80;21146;-73
2022/12/19 02:33:54;;;;;;;30.00;15.03;;;18.50;62.10;;;;;;1776381;80;21191;-72
2022/12/19 02:36:42;;;;;;;35.63;15.72;;;18.60;61.00;;;;;;1780706;79;21118;-72
2022/12/19 02:39:34;;;;;;;28.70;15.60;;;18.60;60.90;;;;;;1779402;79;21166;-71
2022/12/19 02:42:07;;;;;;;31.95;16.10;;;18.60;61.30;;;;;;1789408;78;21436;-72
2022/12/19 02:44:42;;;;;;;32.30;16.37;;;18.60;62.00;;;;;;1811561;76;21233;-71
2022/12/19 02:47:14;;;;;;;34.08;16.02;;;18.70;62.10;;;;;;1840518;76;21143;-70
2022/12/19 02:49:48;;;;;;;28.02;15.20;;;18.80;61.90;;;;;;1838343;76;21749;-71
2022/12/19 02:52:24;;;;;;;32.65;16.30;;;18.90;61.50;;;;;;1846336;76;21266;-71
2022/12/19 02:54:58;;;;;;;32.05;16.45;;;19.00;61.20;;;;;;1826485;77;21113;-72
2022/12/19 02:57:40;;;;;;;28.12;15.05;;;19.10;61.00;;;;;;1828503;76;21946;-70
2022/12/19 03:00:15;;;;;;;32.03;15.60;;;19.10;61.00;;;;;;1833234;77;21203;-71
2022/12/19 03:03:10;;;;;;;33.65;15.65;;;19.20;61.40;;;;;;1824323;76;21226;-71
2022/12/19 03:06:03;;;;;;;33.75;15.38;;;19.20;61.10;;;;;;1829211;77;21207;-71
2022/12/19 03:08:43;;;;;;;28.60;14.93;;;19.30;61.40;;;;;;1826748;77;22420;-72
2022/12/19 03:14:14;;;;;;;32.85;15.65;;;19.50;59.80;;;;;;1841158;76;21624;-71
2022/12/19 03:16:45;;;;;;;24.92;13.43;;;19.60;60.00;;;;;;1802005;79;21174;-71
2022/12/19 03:19:17;;;;;;;34.30;14.80;;;19.70;59.90;;;;;;1838989;77;21576;-71
2022/12/19 03:21:51;;;;;;;27.07;13.68;;;19.80;60.30;;;;;;1844457;76;21216;-70
2022/12/19 03:24:23;;;;;;;29.52;13.20;;;19.90;58.50;;;;;;1836956;76;21168;-72
2022/12/19 03:27:02;;;;;;;28.47;14.50;;;20.00;58.10;;;;;;1838772;77;21096;-71
2022/12/19 03:29:39;;;;;;;30.72;14.73;;;20.00;58.10;;;;;;1843086;76;21201;-70
2022/12/19 03:32:12;;;;;;;31.23;14.33;;;20.10;58.40;;;;;;1846884;76;21146;-70
2022/12/19 03:34:49;;;;;;;31.87;14.55;;;20.10;58.00;;;;;;1859535;76;21090;-71
2022/12/19 03:37:24;;;;;;;31.30;13.90;;;20.20;57.60;;;;;;1859710;76;21491;-71
2022/12/19 03:39:57;;;;;;;26.27;13.93;;;20.20;57.60;;;;;;1803734;77;21523;-71
2022/12/19 03:45:24;;;;;;;24.12;12.95;;;20.30;57.70;;;;;;1803119;79;21157;-71
2022/12/19 03:47:58;;;;;;;25.53;13.03;;;20.40;57.70;;;;;;1833328;76;21128;-71
2022/12/19 03:50:32;;;;;;;19.92;12.00;;;20.50;57.00;;;;;;1798136;77;21565;-72
2022/12/19 03:53:23;;;;;;;26.73;12.70;;;20.70;57.70;;;;;;1853039;76;21240;-71
2022/12/19 03:56:00;;;;;;;21.05;11.95;;;20.80;56.30;;;;;;1844183;76;21260;-71
2022/12/19 03:58:36;;;;;;;25.25;12.25;;;21.00;55.70;;;;;;1813849;77;21158;-71
2022/12/19 04:01:08;;;;;;;25.85;11.57;;;21.10;55.40;;;;;;1841447;76;21160;-72
2022/12/19 04:03:39;;;;;;;25.68;11.75;;;21.30;55.10;;;;;;1841880;76;21242;-72
2022/12/19 04:06:20;;;;;;;25.77;11.08;;;21.40;54.40;;;;;;1847325;76;21581;-72
2022/12/19 04:08:52;;;;;;;27.60;11.57;;;21.40;54.50;;;;;;1858247;76;21176;-71
2022/12/19 04:11:26;;;;;;;26.30;10.95;;;21.60;54.70;;;;;;1849638;76;21131;-71
2022/12/19 04:14:01;;;;;;;24.00;10.65;;;21.60;53.80;;;;;;1839835;76;21107;-72
2022/12/19 04:16:43;;;;;;;30.52;11.68;;;21.80;54.20;;;;;;1849845;76;21803;-70
2022/12/19 04:19:19;;;;;;;24.27;11.45;;;21.90;53.90;;;;;;1847766;76;21651;-72
2022/12/19 04:21:59;;;;;;;24.12;10.82;;;22.00;53.60;;;;;;1851127;77;21599;-70
2022/12/19 04:24:33;;;;;;;21.55;11.78;;;22.10;53.00;;;;;;1846304;77;21169;-71
2022/12/19 04:27:07;;;;;;;21.50;10.82;;;22.20;53.20;;;;;;1802802;79;21115;-71
2022/12/19 04:29:41;;;;;;;21.70;12.05;;;22.30;53.60;;;;;;1846138;76;21212;-72
2022/12/19 04:32:13;;;;;;;30.30;12.93;;;22.50;53.00;;;;;;1847824;76;21084;-73
2022/12/19 04:34:44;;;;;;;23.07;12.80;;;;;;;;;;1848498;76;21153;-74
2022/12/19 04:37:16;;;;;;;26.62;12.53;;;22.70;52.10;;;;;;1811518;79;21228;-74
2022/12/19 04:39:47;;;;;;;23.20;12.30;;;22.70;52.60;;;;;;1845078;76;21087;-73
2022/12/19 04:42:18;;;;;;;26.23;10.78;;;22.80;52.20;;;;;;1856448;76;21103;-74
2022/12/19 04:44:49;;;;;;;23.50;11.57;;;22.90;52.40;;;;;;1845106;76;21178;-73
2022/12/19 04:47:20;;;;;;;17.42;10.03;;;23.00;52.30;;;;;;1823098;78;21207;-72
2022/12/19 04:49:52;;;;;;;23.27;10.90;;;23.10;51.80;;;;;;1848489;76;21721;-72
2022/12/19 04:52:26;;;;;;;18.62;8.95;;;23.20;51.90;;;;;;1847920;76;21308;-72
2022/12/19 04:55:00;;;;;;;14.53;8.50;;;23.30;51.40;;;;;;1829997;77;21523;-73
2022/12/19 04:57:34;;;;;;;18.73;9.20;;;23.30;51.50;;;;;;1856158;76;21184;-71
2022/12/19 05:00:07;;;;;;;19.48;9.43;;;23.40;51.80;;;;;;1850527;76;21071;-73
2022/12/19 05:02:39;;;;;;;16.35;8.50;;;23.60;51.80;;;;;;1858227;76;21103;-73
2022/12/19 05:05:17;;;;;;;14.28;8.68;;;23.70;51.60;;;;;;1932138;74;21648;-72
2022/12/19 05:07:51;;;;;;;16.48;8.03;;;23.90;51.60;;;;;;1913341;74;21096;-73
2022/12/19 05:10:32;;;;;;;18.67;8.20;;;24.00;51.30;;;;;;1935099;74;21188;-73
2022/12/19 05:13:05;;;;;;;19.87;8.35;;;24.00;51.20;;;;;;1917743;74;21130;-73
2022/12/19 05:16:00;;;;;;;18.90;7.97;;;24.10;51.30;;;;;;1886661;72;21141;-74
2022/12/19 05:18:32;;;;;;;13.90;7.87;;;24.20;50.90;;;;;;1919986;72;21184;-73
2022/12/19 05:21:06;;;;;;;17.87;8.43;;;24.20;51.40;;;;;;1940408;74;21248;-73
2022/12/19 05:23:51;;;;;;;22.22;9.30;;;24.30;51.20;;;;;;1933689;74;21108;-73
2022/12/19 05:26:30;;;;;;;15.90;8.53;;;24.40;51.10;;;;;;1897065;74;21141;-73
2022/12/19 05:29:09;;;;;;;14.65;7.47;;;24.40;50.90;;;;;;1885741;75;21136;-73
2022/12/19 05:31:42;;;;;;;13.58;7.30;;;24.40;50.90;;;;;;1901177;74;21376;-74
2022/12/19 05:34:16;;;;;;;17.87;7.85;;;24.40;50.90;;;;;;1923595;74;21183;-73
2022/12/19 05:36:47;;;;;;;20.32;8.00;;;24.40;51.10;;;;;;1926162;72;21219;-73
2022/12/19 05:39:20;;;;;;;19.15;9.00;;;24.40;51.20;;;;;;1866072;76;21135;-75
2022/12/19 05:41:53;;;;;;;14.18;8.25;;;24.60;58.50;;;;;;1908030;74;21209;-72
2022/12/19 05:44:25;;;;;;;15.60;8.48;;;24.50;53.00;;;;;;1922148;72;21554;-74
2022/12/19 05:46:58;;;;;;;17.40;8.08;;;24.60;54.30;;;;;;1922611;74;21129;-73
2022/12/19 05:49:30;;;;;;;16.05;7.85;;;24.70;56.70;;;;;;1920853;74;21177;-73
2022/12/19 05:52:01;;;;;;;15.25;7.78;;;24.60;50.80;;;;;;1914729;74;21118;-74
2022/12/19 05:54:33;;;;;;;15.13;8.00;;;24.70;51.10;;;;;;1908400;74;21651;-74
2022/12/19 05:57:04;;;;;;;16.80;9.83;;;24.80;51.10;;;;;;1910257;73;21167;-74
2022/12/19 05:59:36;;;;;;;19.30;8.95;;;24.80;50.70;;;;;;1908255;74;21207;-74
2022/12/19 06:02:08;;;;;;;18.42;8.60;;;24.80;50.70;;;;;;1908846;74;21134;-72
2022/12/19 06:04:41;;;;;;;15.13;8.55;;;24.80;50.50;;;;;;1907933;74;21251;-74
2022/12/19 06:07:13;;;;;;;13.83;7.47;;;24.80;50.40;;;;;;1942216;73;21074;-74
2022/12/19 06:09:48;;;;;;;16.57;8.05;;;24.80;50.30;;;;;;1933342;73;21150;-73
2022/12/19 06:12:20;;;;;;;13.38;7.42;;;24.80;50.90;;;;;;1878246;74;21074;-73
2022/12/19 06:14:52;;;;;;;15.75;7.25;;;24.70;51.40;;;;;;1878340;74;21120;-73
2022/12/19 06:17:23;;;;;;;13.58;6.97;;;24.80;51.40;;;;;;1957545;72;21147;-73
2022/12/19 06:19:54;;;;;;;15.80;7.35;;;24.80;51.20;;;;;;1943190;72;21100;-74
2022/12/19 06:22:27;;;;;;;18.45;9.85;;;24.90;51.00;;;;;;1946077;72;21116;-73
2022/12/19 06:25:03;;;;;;;15.95;7.87;;;25.00;50.70;;;;;;1921076;72;21251;-72
2022/12/19 06:27:34;;;;;;;16.90;7.58;;;24.90;51.00;;;;;;1883671;73;21069;-73
2022/12/19 06:30:06;;;;;;;17.45;7.90;;;25.00;50.90;;;;;;1929215;72;21270;-73
2022/12/19 06:32:37;;;;;;;18.07;8.63;;;25.00;51.10;;;;;;1939773;72;21149;-72
2022/12/19 06:35:10;;;;;;;15.93;7.60;;;25.00;51.00;;;;;;1925981;72;21133;-73
2022/12/19 06:37:42;;;;;;;13.20;7.60;;;25.00;51.00;;;;;;1937001;72;21070;-71
2022/12/19 06:43:16;;;;;;;16.52;7.67;;;25.10;50.90;;;;;;1933744;72;21162;-72
2022/12/19 06:45:47;;;;;;;15.03;7.58;;;25.10;50.70;;;;;;1934872;72;21179;-73
2022/12/19 06:48:21;;;;;;;11.73;6.28;;;25.10;51.00;;;;;;1937655;72;21145;-73
2022/12/19 06:50:56;;;;;;;16.35;6.70;;;25.10;51.20;;;;;;1926840;72;21566;-74
2022/12/19 06:53:32;;;;;;;15.45;7.47;;;25.10;51.20;;;;;;1949490;72;21128;-73
2022/12/19 06:56:05;;;;;;;13.03;7.40;;;25.10;51.20;;;;;;1944233;72;21051;-73
2022/12/19 06:58:41;;;;;;;17.02;7.58;;;25.10;51.20;;;;;;1932518;72;21597;-73
2022/12/19 07:01:22;;;;;;;17.10;7.05;;;25.10;51.20;;;;;;1933932;72;21058;-72
2022/12/19 07:03:59;;;;;;;14.68;7.60;;;25.10;51.10;;;;;;1925254;72;21259;-74
2022/12/19 07:06:50;;;;;;;15.45;7.35;;;25.10;51.40;;;;;;1952365;72;21159;-74
2022/12/19 07:09:22;;;;;;;12.90;7.30;;;25.10;52.10;;;;;;1888612;75;21221;-73
2022/12/19 07:11:59;;;;;;;13.88;7.45;;;25.10;51.60;;;;;;1855265;75;21073;-74
2022/12/19 07:14:30;;;;;;;17.90;6.95;;;25.10;51.50;;;;;;1878526;73;21184;-74
2022/12/19 07:17:05;;;;;;;17.07;7.12;;;25.10;51.60;;;;;;1946060;72;21143;-73
2022/12/19 07:19:39;;;;;;;20.30;7.55;;;25.10;51.80;;;;;;1945986;72;21691;-72
2022/12/19 07:22:11;;;;;;;16.57;7.30;;;25.10;51.80;;;;;;1945747;72;21062;-73
2022/12/19 07:25:07;;;;;;;14.45;7.30;;;25.10;51.70;;;;;;1949660;72;21222;-72
2022/12/19 07:27:40;;;;;;;15.00;7.83;;;25.10;51.90;;;;;;1956349;72;21068;-73
2022/12/19 07:30:17;;;;;;;14.33;7.17;;;25.10;51.80;;;;;;1930731;72;21067;-70
2022/12/19 07:32:57;;;;;;;13.05;6.95;;;25.10;52.00;;;;;;1938681;72;21584;-69
2022/12/19 07:35:36;;;;;;;13.35;7.67;;;25.10;51.60;;;;;;1927129;72;21089;-70
2022/12/19 07:38:07;;;;;;;11.70;6.35;;;25.10;51.60;;;;;;1920175;72;21051;-71
2022/12/19 07:41:02;;;;;;;16.25;7.80;;;25.10;51.80;;;;;;1949271;72;21213;-71
2022/12/19 07:43:51;;;;;;;13.50;7.40;;;25.00;52.20;;;;;;1824633;77;21569;-70
2022/12/19 07:46:26;;;;;;;16.40;7.78;;;25.00;51.80;;;;;;1819265;77;21124;-71
2022/12/19 07:48:59;;;;;;;16.90;7.55;;;25.00;51.90;;;;;;1796000;78;21897;-71
2022/12/19 07:51:40;;;;;;;15.40;8.10;;;25.00;51.70;;;;;;1820690;77;21241;-71
2022/12/19 07:54:16;;;;;;;14.60;7.70;;;25.00;51.60;;;;;;1817480;77;21186;-70
2022/12/19 07:56:50;;;;;;;15.63;7.92;;;24.90;51.90;;;;;;1834960;77;21167;-71
2022/12/19 07:59:30;;;;;;;17.87;7.75;;;24.90;52.00;;;;;;1843237;76;21089;-72
2022/12/19 08:02:08;;;;;;;15.80;7.90;;;24.90;52.40;;;;;;1822587;77;21181;-70
2022/12/19 08:04:57;;;;;;;14.87;7.83;;;24.90;52.30;;;;;;1836237;77;21175;-70
2022/12/19 08:07:30;;;;;;;14.15;8.30;;;24.90;52.50;;;;;;1839622;77;21206;-70
2022/12/19 08:10:21;;;;;;;15.40;8.23;;;24.80;52.50;;;;;;1843799;77;21163;-69
2022/12/19 08:12:59;;;;;;;14.87;8.18;;;24.80;52.70;;;;;;1840594;77;22013;-70
2022/12/19 08:15:39;;;;;;;15.13;9.40;;;24.80;52.60;;;;;;1827981;77;21477;-71
2022/12/19 08:18:10;;;;;;;15.32;8.00;;;24.80;52.80;;;;;;1822884;77;21171;-69
2022/12/19 08:20:53;;;;;;;14.83;7.87;;;24.80;53.50;;;;;;1821234;76;21702;-69
2022/12/19 08:23:29;;;;;;;21.02;8.03;;;24.80;53.60;;;;;;1806081;78;21163;-70
2022/12/19 08:26:02;;;;;;;15.10;8.58;;;24.70;52.90;;;;;;1815386;77;21163;-70
2022/12/19 08:28:36;;;;;;;16.45;8.60;;;24.70;53.00;;;;;;1816185;77;21697;-70
2022/12/19 08:31:16;;;;;;;17.02;8.05;;;24.70;53.00;;;;;;1808819;78;21186;-70
2022/12/19 08:33:55;;;;;;;15.48;8.30;;;24.70;53.10;;;;;;1811661;78;21108;-71
2022/12/19 08:36:28;;;;;;;18.80;8.40;;;24.70;53.30;;;;;;1808874;78;21140;-71
2022/12/19 08:39:12;;;;;;;17.02;8.90;;;24.60;53.40;;;;;;1809311;78;21160;-71
2022/12/19 08:41:43;;;;;;;15.95;7.70;;;24.60;53.30;;;;;;1810145;78;21103;-70
2022/12/19 08:44:15;;;;;;;16.80;8.48;;;24.60;53.40;;;;;;1920876;74;21110;-70
2022/12/19 08:46:48;;;;;;;17.30;8.25;;;24.60;53.20;;;;;;1933307;73;21132;-70
2022/12/19 08:49:30;;;;;;;12.82;7.70;;;24.60;53.40;;;;;;1929787;73;21638;-72
2022/12/19 08:52:19;;;;;;;17.02;8.18;;;24.60;53.70;;;;;;1933121;73;21155;-71
2022/12/19 08:54:58;;;;;;;13.85;7.97;;;24.60;53.60;;;;;;1907110;73;21278;-71
2022/12/19 08:57:35;;;;;;;12.95;8.03;;;24.70;53.40;;;;;;1829287;77;21181;-70
2022/12/19 09:00:07;;;;;;;12.80;8.05;;;24.70;53.60;;;;;;1822882;75;21587;-72
2022/12/19 09:02:40;;;;;;;16.70;8.25;;;24.70;54.60;;;;;;1823508;77;21224;-70
2022/12/19 09:05:29;;;;;;;12.68;7.50;;;24.70;53.90;;;;;;1841445;77;21098;-70
2022/12/19 09:08:01;;;;;;;13.45;8.35;;;24.70;53.90;;;;;;1836245;76;21079;-70
2022/12/19 09:10:44;;;;;;;13.22;7.83;;;24.60;53.80;;;;;;1840964;77;21622;-70
2022/12/19 09:13:29;;;;;;;15.23;7.95;;;24.60;53.90;;;;;;1834564;76;21079;-71
2022/12/19 09:16:10;;;;;;;15.30;8.18;;;24.60;53.70;;;;;;1876917;73;21225;-71
2022/12/19 09:18:44;;;;;;;17.60;7.50;;;24.60;53.90;;;;;;1890313;74;21257;-71
2022/12/19 09:21:21;;;;;;;14.28;7.95;;;24.60;54.00;;;;;;1881612;74;21153;-71
2022/12/19 09:24:01;;;;;;;13.93;7.53;;;24.50;54.10;;;;;;1892707;74;21067;-71
2022/12/19 09:26:51;;;;;;;13.90;7.80;;;24.50;54.10;;;;;;1889830;74;21116;-71
2022/12/19 09:29:24;;;;;;;16.90;8.23;;;24.50;54.30;;;;;;1884543;75;21061;-71
2022/12/19 09:32:13;;;;;;;15.78;7.78;;;24.50;54.20;;;;;;1883144;75;21192;-71
2022/12/19 09:35:02;;;;;;;15.60;7.85;;;24.50;54.00;;;;;;1887351;74;21203;-71
2022/12/19 09:37:37;;;;;;;19.60;8.48;;;24.40;54.10;;;;;;1834862;77;21565;-71
2022/12/19 09:40:17;;;;;;;15.63;8.50;;;24.40;54.00;;;;;;1843316;76;21192;-71
2022/12/19 09:43:24;;;;;;;16.07;8.68;;;24.40;54.90;;;;;;1814670;77;21121;-72
2022/12/19 09:46:19;;;;;;;14.60;7.90;;;24.40;54.30;;;;;;1795622;78;21226;-71
2022/12/19 09:48:52;;;;;;;14.07;7.67;;;24.30;54.60;;;;;;1815531;77;21138;-72
2022/12/19 09:51:47;;;;;;;18.73;8.25;;;24.30;54.70;;;;;;1838728;76;21158;-73
2022/12/19 09:54:34;;;;;;;21.95;9.10;;;24.30;54.80;;;;;;1811578;78;21614;-72
2022/12/19 09:57:10;;;;;;;23.02;10.45;;;24.20;54.60;;;;;;1802869;78;21622;-72
2022/12/19 09:59:44;;;;;;;22.98;10.48;;;24.20;54.70;;;;;;1806380;78;21076;-72
2022/12/19 10:02:37;;;;;;;23.22;14.03;;;24.20;54.80;;;;;;1823392;77;21315;-72
2022/12/19 10:05:14;;;;;;;24.40;13.28;;;24.10;55.00;;;;;;1802193;78;21598;-72
2022/12/19 10:07:46;;;;;;;24.45;12.25;;;24.10;55.20;;;;;;1822215;76;21813;-72
2022/12/19 10:10:24;;;;;;;16.97;11.08;;;24.00;55.20;;;;;;1810712;76;21233;-73
2022/12/19 10:13:06;;;;;;;21.60;12.37;;;24.00;55.30;;;;;;1815150;76;21080;-72
2022/12/19 10:15:49;;;;;;;24.05;14.13;;;24.00;55.60;;;;;;1803241;78;21157;-70
2022/12/19 10:18:39;;;;;;;30.68;17.42;;;24.00;55.60;;;;;;1819832;77;21201;-72
2022/12/19 10:21:29;;;;;;;31.23;19.02;;;23.90;55.60;;;;;;1816216;77;21697;-72
2022/12/19 10:24:13;;;;;;;29.72;16.85;;;23.90;55.80;;;;;;1804622;78;21111;-71
2022/12/19 10:26:50;;;;;;;32.55;18.50;;;23.90;56.00;;;;;;1826746;76;21108;-72
2022/12/19 10:29:52;;;;;;;28.07;16.37;;;23.80;56.10;;;;;;1820515;78;21171;-83
2022/12/19 10:32:31;;;;;;;25.80;16.80;;;23.80;56.30;;;;;;1831739;76;21068;-84
2022/12/19 10:35:04;;;;;;;38.58;18.82;;;23.70;56.40;;;;;;1806625;77;21551;-84
2022/12/19 10:37:41;;;;;;;27.17;15.00;;;23.70;56.60;;;;;;1819230;77;21754;-83
2022/12/19 10:40:29;;;;;;;23.75;14.53;;;23.70;56.90;;;;;;1797171;77;21062;-83
2022/12/19 10:43:15;;;;;;;22.93;13.35;;;23.70;57.20;;;;;;1811467;78;21153;-83
2022/12/19 10:45:47;;;;;;;;;;;23.70;57.30;;;;;;1804749;77;21131;-84
2022/12/19 10:48:23;;;;;;;22.45;12.73;;;23.60;57.30;;;;;;1785190;76;20133;-84
2022/12/19 10:50:56;;;;;;;27.32;14.68;;;23.60;57.60;;;;;;1829739;76;21680;-85
2022/12/19 10:53:31;;;;;;;24.72;14.13;;;23.60;57.80;;;;;;1835719;77;21204;-84
2022/12/19 10:56:13;;;;;;;25.92;15.00;;;23.50;57.90;;;;;;1803052;79;21150;-84
2022/12/19 10:58:44;;;;;;;24.87;13.98;;;23.50;58.00;;;;;;1794412;78;21207;-84
2022/12/19 11:01:24;;;;;;;28.60;13.78;;;23.50;58.10;;;;;;1799923;78;21651;-86
2022/12/19 11:04:17;;;;;;;23.10;13.15;;;23.50;58.30;;;;;;1802950;78;21587;-84
2022/12/19 11:06:50;;;;;;;25.55;12.68;;;23.40;58.50;;;;;;1813011;77;21512;-84
2022/12/19 11:09:30;;;;;;;22.13;12.93;;;23.40;58.60;;;;;;1820182;77;21146;-86
2022/12/19 11:12:12;;;;;;;23.50;12.90;;;23.40;58.90;;;;;;1819793;78;21127;-83
2022/12/19 11:14:53;;;;;;;24.55;12.13;;;23.30;59.00;;;;;;1833797;76;21210;-83
2022/12/19 11:17:34;;;;;;;26.15;12.58;;;23.30;59.10;;;;;;1821151;78;21233;-83
2022/12/19 11:20:23;;;;;;;24.77;12.13;;;23.30;59.40;;;;;;1805982;78;21179;-86
2022/12/19 11:22:59;;;;;;;27.93;12.10;;;23.30;59.50;;;;;;1773187;80;21181;-83
2022/12/19 11:25:43;;;;;;;24.72;12.95;;;23.20;59.80;;;;;;1777516;80;21168;-83
2022/12/19 11:28:26;;;;;;;33.18;15.60;;;23.20;59.90;;;;;;1789299;77;21180;-83
2022/12/19 11:31:07;;;;;;;29.60;14.93;;;23.10;60.00;;;;;;1793401;78;21134;-85
2022/12/19 11:33:43;;;;;;;31.65;17.23;;;23.10;59.90;;;;;;1791204;79;21132;-83
2022/12/19 11:36:33;;;;;;;26.62;15.50;;;23.10;59.90;;;;;;1783290;79;21274;-83
2022/12/19 11:39:05;;;;;;;29.60;18.23;;;23.10;59.80;;;;;;1821559;79;21095;-84
2022/12/19 11:41:41;;;;;;;28.20;15.60;;;23.10;59.80;;;;;;1856407;77;21206;-83
2022/12/19 11:44:30;;;;;;;27.22;15.72;;;23.10;59.80;;;;;;1850967;77;21097;-84
2022/12/19 11:47:26;;;;;;;28.05;16.32;;;23.10;59.80;;;;;;1814244;76;21165;-84
2022/12/19 11:50:15;;;;;;;25.95;15.43;;;23.10;59.80;;;;;;1850587;76;21134;-83
2022/12/19 11:53:00;;;;;;;28.62;14.38;;;23.00;59.60;;;;;;1852569;75;21255;-84
2022/12/19 11:55:32;;;;;;;;;;;23.00;59.60;;;;;;1858921;77;21176;-83
2022/12/19 11:58:03;;;;;;;29.60;15.43;;;23.00;59.50;;;;;;1823131;78;20229;-84
2022/12/19 12:00:34;;;;;;;30.05;16.75;;;23.00;60.50;;;;;;1787876;80;21106;-83
2022/12/19 12:03:41;;;;;;;27.25;16.75;;;23.00;59.40;;;;;;1782440;79;21106;-83
2022/12/19 12:06:18;;;;;;;28.98;16.60;;;23.00;59.60;;;;;;1768668;80;21180;-82
2022/12/19 12:09:06;;;;;;;30.25;17.65;;;23.00;59.50;;;;;;1790654;79;21168;-82
2022/12/19 12:11:38;;;;;;;;;;;23.00;59.70;;;;;;1784942;78;21232;-83
2022/12/19 12:14:31;;;;;;;32.93;17.98;;;23.00;59.50;;;;;;1756474;80;20483;-86
2022/12/19 12:17:08;;;;;;;36.33;18.87;;;22.90;59.40;;;;;;1799286;79;21501;-83
2022/12/19 12:20:03;;;;;;;30.82;18.82;;;22.90;59.30;;;;;;1779362;78;21293;-83
2022/12/19 12:23:08;;;;;;;29.75;18.67;;;22.90;59.20;;;;;;1686882;82;21318;-83
2022/12/19 12:25:59;;;;;;;32.28;18.12;;;22.90;59.30;;;;;;1820145;77;21776;-83
2022/12/19 12:28:53;;;;;;;33.67;18.35;;;22.90;59.40;;;;;;1849821;75;21237;-83
2022/12/19 12:31:30;;;;;;;36.55;18.55;;;22.80;59.30;;;;;;1856659;77;21197;-83
2022/12/19 12:34:08;;;;;;;26.95;17.07;;;22.80;59.30;;;;;;1790824;79;21298;-84
2022/12/19 12:37:02;;;;;;;31.57;16.87;;;22.80;59.20;;;;;;1780066;80;21095;-84
2022/12/19 12:39:37;;;;;;;35.52;18.87;;;22.80;59.30;;;;;;1808979;77;21216;-84
2022/12/19 12:42:22;;;;;;;30.95;17.73;;;22.70;59.00;;;;;;1860995;77;21123;-84
2022/12/19 12:44:55;;;;;;;29.60;17.55;;;22.70;59.10;;;;;;1858418;75;21137;-82
2022/12/19 12:47:29;;;;;;;28.62;16.77;;;22.70;58.90;;;;;;1867422;75;21142;-83
2022/12/19 12:50:06;;;;;;;38.13;17.23;;;22.60;58.90;;;;;;1864213;77;21129;-83
2022/12/19 12:52:40;;;;;;;28.87;16.62;;;22.70;59.00;;;;;;1868920;77;21141;-84
2022/12/19 12:55:19;;;;;;;28.98;17.40;;;22.60;59.10;;;;;;1840496;77;21142;-82
2022/12/19 12:57:50;;;;;;;29.23;17.00;;;22.60;59.30;;;;;;1861666;77;21106;-83
2022/12/19 13:00:24;;;;;;;35.28;20.02;;;22.60;59.40;;;;;;1868194;77;21091;-83
2022/12/19 13:03:06;;;;;;;39.00;22.20;;;22.60;59.50;;;;;;1854657;77;21788;-83
2022/12/19 13:06:07;;;;;;;36.73;21.45;;;22.60;59.10;;;;;;1868424;77;21122;-83
2022/12/19 13:08:49;;;;;;;39.03;20.48;;;22.50;59.60;;;;;;1852152;76;21671;-84
2022/12/19 13:14:36;;;;;;;41.92;22.73;;;22.40;59.70;;;;;;1858645;77;21126;-83
2022/12/19 13:17:11;;;;;;;37.85;22.42;;;22.40;59.90;;;;;;1854991;77;21126;-82
2022/12/19 13:20:12;;;;;;;36.58;21.50;;;22.40;60.00;;;;;;1861323;77;21610;-82
2022/12/19 13:22:46;;;;;;;40.03;22.02;;;22.30;60.00;;;;;;1870912;77;21593;-83
2022/12/19 13:25:39;;;;;;;41.50;22.80;;;22.30;60.20;;;;;;1868841;75;21126;-83
2022/12/19 13:28:24;;;;;;;41.00;21.97;;;22.20;60.50;;;;;;1865694;75;21204;-83
2022/12/19 13:31:10;;;;;;;38.90;21.90;;;22.20;60.70;;;;;;1845797;75;21126;-83
2022/12/19 13:33:53;;;;;;;39.70;19.98;;;22.20;60.90;;;;;;1861993;75;21213;-84
2022/12/19 13:36:55;;;;;;;34.50;20.97;;;22.10;60.90;;;;;;1866938;77;21125;-82
2022/12/19 13:39:33;;;;;;;38.63;22.00;;;22.10;60.90;;;;;;1858285;75;21157;-81